createdAt,value
2023-02-09T00:01:09.592Z,77.35
2023-02-09T00:03:37.960Z,77.12
2023-02-09T00:06:07.150Z,76.41
2023-02-09T00:08:36.886Z,76.19
2023-02-09T00:11:08.892Z,75.66
2023-02-09T00:13:39.952Z,76.28
2023-02-09T00:16:07.970Z,76.08
2023-02-09T00:18:36.220Z,76.49
2023-02-09T00:21:06.935Z,76.03
2023-02-09T00:23:37.632Z,75.57
2023-02-09T00:26:09.513Z,76.14
2023-02-09T00:28:37.875Z,75.70
2023-02-09T00:31:09.552Z,75.86
2023-02-09T00:33:41.324Z,76.37
2023-02-09T00:36:13.289Z,75.66
2023-02-09T00:38:42.808Z,75.96
2023-02-09T00:41:12.540Z,75.86
2023-02-09T00:43:41.381Z,76.04
2023-02-09T00:46:09.743Z,76.78
2023-02-09T00:48:37.953Z,77.11
2023-02-09T00:51:06.164Z,77.33
2023-02-09T00:53:36.115Z,77.04
2023-02-09T00:56:03.701Z,77.11
2023-02-09T00:58:33.147Z,77.21
2023-02-09T01:01:01.077Z,77.55
2023-02-09T01:03:28.917Z,76.89
2023-02-09T01:05:59.534Z,77.35
2023-02-09T01:08:27.469Z,76.70
2023-02-09T01:10:55.253Z,76.96
2023-02-09T01:13:22.924Z,76.52
2023-02-09T01:15:51.858Z,76.35
2023-02-09T01:18:19.760Z,77.80
2023-02-09T01:20:47.492Z,78.07
2023-02-09T01:23:17.096Z,78.43
2023-02-09T01:25:45.588Z,78.63
2023-02-09T01:28:13.623Z,77.80
2023-02-09T01:30:41.381Z,78.09
2023-02-09T01:33:10.448Z,77.76
2023-02-09T01:35:39.114Z,77.23
2023-02-09T01:38:06.728Z,76.94
2023-02-09T01:40:34.933Z,77.66
2023-02-09T01:43:02.643Z,77.04
2023-02-09T01:45:37.055Z,77.56
2023-02-09T01:48:05.157Z,77.50
2023-02-09T01:50:38.817Z,77.37
2023-02-09T01:53:07.927Z,77.41
2023-02-09T01:55:43.311Z,78.23
2023-02-09T01:58:14.419Z,77.88
2023-02-09T02:00:43.657Z,78.20
2023-02-09T02:03:16.247Z,78.04
2023-02-09T02:05:51.619Z,77.80
2023-02-09T02:08:27.396Z,77.35
2023-02-09T02:10:56.351Z,77.55
2023-02-09T02:13:24.282Z,77.67
2023-02-09T02:16:02.859Z,77.57
2023-02-09T02:18:56.636Z,77.27
2023-02-09T02:21:44.942Z,76.65
2023-02-09T02:24:30.891Z,76.88
2023-02-09T02:27:01.250Z,76.62
2023-02-09T02:29:51.979Z,76.17
2023-02-09T02:32:42.157Z,76.30
2023-02-09T02:35:19.087Z,75.54
2023-02-09T02:37:57.049Z,76.58
2023-02-09T02:40:38.874Z,76.23
2023-02-09T02:43:13.416Z,76.77
2023-02-09T02:45:46.269Z,76.69
2023-02-09T02:48:28.720Z,77.15
2023-02-09T02:51:03.676Z,76.74
2023-02-09T02:53:34.499Z,76.43
2023-02-09T02:56:08.720Z,76.35
2023-02-09T02:58:39.997Z,75.49
2023-02-09T03:01:13.728Z,75.98
2023-02-09T03:03:44.837Z,77.17
2023-02-09T03:06:14.547Z,76.81
2023-02-09T03:08:54.029Z,75.47
2023-02-09T03:11:24.452Z,76.30
2023-02-09T03:14:18.753Z,76.26
2023-02-09T03:16:49.843Z,76.34
2023-02-09T03:19:31.167Z,76.01
2023-02-09T03:22:05.442Z,77.35
2023-02-09T03:24:38.271Z,76.83
2023-02-09T03:27:14.897Z,77.92
2023-02-09T03:29:46.113Z,77.51
2023-02-09T03:32:14.921Z,76.91
2023-02-09T03:34:44.513Z,77.20
2023-02-09T03:37:12.702Z,76.97
2023-02-09T03:39:40.613Z,77.36
2023-02-09T03:42:09.063Z,77.63
2023-02-09T03:44:36.676Z,77.64
2023-02-09T03:47:07.010Z,77.34
2023-02-09T03:49:36.948Z,77.33
2023-02-09T03:52:08.041Z,77.92
2023-02-09T03:54:36.932Z,77.59
2023-02-09T03:57:05.655Z,78.13
2023-02-09T03:59:35.354Z,78.31
2023-02-09T04:02:04.213Z,78.24
2023-02-09T04:04:32.807Z,77.88
2023-02-09T04:07:01.240Z,77.42
2023-02-09T04:09:30.304Z,77.17
2023-02-09T04:11:58.689Z,77.66
2023-02-09T04:14:26.516Z,77.55
2023-02-09T04:16:55.168Z,78.13
2023-02-09T04:19:22.786Z,77.97
2023-02-09T04:21:50.877Z,77.67
2023-02-09T04:24:27.013Z,78.51
2023-02-09T04:26:56.248Z,78.30
2023-02-09T04:29:23.855Z,78.69
2023-02-09T04:31:52.255Z,78.48
2023-02-09T04:34:21.135Z,78.09
2023-02-09T04:36:49.456Z,78.41
2023-02-09T04:39:17.350Z,77.91
2023-02-09T04:41:45.945Z,77.83
2023-02-09T04:44:14.880Z,78.16
2023-02-09T04:46:45.339Z,78.02
2023-02-09T04:49:13.233Z,78.38
2023-02-09T04:51:41.132Z,78.48
2023-02-09T04:54:08.713Z,78.29
2023-02-09T04:56:38.690Z,77.51
2023-02-09T04:59:23.985Z,77.67
2023-02-09T05:01:53.327Z,77.73
2023-02-09T05:04:20.895Z,77.70
2023-02-09T05:06:49.396Z,77.38
2023-02-09T05:09:16.988Z,77.16
2023-02-09T05:11:45.215Z,77.52
2023-02-09T05:14:12.804Z,77.17
2023-02-09T05:16:40.685Z,77.49
2023-02-09T05:19:09.956Z,77.56
2023-02-09T05:21:37.539Z,77.44
2023-02-09T05:24:06.048Z,78.07
2023-02-09T05:26:33.662Z,78.34
2023-02-09T05:29:01.783Z,77.75
2023-02-09T05:31:29.613Z,76.76
2023-02-09T05:33:57.981Z,76.69
2023-02-09T05:36:27.034Z,76.71
2023-02-09T05:38:54.860Z,76.85
2023-02-09T05:41:36.375Z,76.68
2023-02-09T05:44:05.469Z,76.95
2023-02-09T05:46:33.201Z,76.59
2023-02-09T05:49:01.506Z,76.64
2023-02-09T05:51:30.420Z,76.95
2023-02-09T05:53:58.372Z,77.11
2023-02-09T05:56:26.120Z,77.76
2023-02-09T05:58:53.724Z,77.79
2023-02-09T06:01:21.317Z,77.04
2023-02-09T06:03:49.321Z,76.98
2023-02-09T06:06:16.948Z,77.72
2023-02-09T06:08:46.194Z,78.03
2023-02-09T06:11:13.806Z,77.58
2023-02-09T06:13:42.021Z,78.22
2023-02-09T06:16:09.790Z,78.14
2023-02-09T06:18:38.657Z,77.38
2023-02-09T06:21:06.606Z,77.24
2023-02-09T06:23:35.358Z,76.88
2023-02-09T06:26:08.437Z,76.81
2023-02-09T06:28:36.183Z,76.53
2023-02-09T06:31:04.218Z,77.45
2023-02-09T06:33:33.072Z,77.14
2023-02-09T06:36:00.709Z,77.03
2023-02-09T06:38:28.842Z,77.28
2023-02-09T06:40:56.501Z,77.23
2023-02-09T06:43:26.085Z,77.42
2023-02-09T06:45:54.792Z,77.09
2023-02-09T06:48:22.976Z,77.52
2023-02-09T06:50:50.803Z,77.11
2023-02-09T06:53:18.845Z,77.16
2023-02-09T06:55:46.592Z,77.45
2023-02-09T06:58:14.155Z,77.08
2023-02-09T07:00:43.659Z,77.44
2023-02-09T07:03:11.817Z,77.12
2023-02-09T07:05:39.453Z,77.59
2023-02-09T07:08:07.018Z,76.71
2023-02-09T07:10:35.294Z,76.82
2023-02-09T07:13:02.912Z,76.95
2023-02-09T07:15:31.077Z,76.74
2023-02-09T07:18:00.337Z,75.60
2023-02-09T07:20:28.546Z,75.25
2023-02-09T07:22:56.099Z,75.69
2023-02-09T07:25:24.287Z,76.93
2023-02-09T07:27:51.921Z,76.68
2023-02-09T07:30:20.275Z,77.24
2023-02-09T07:32:47.854Z,76.69
2023-02-09T07:35:17.911Z,76.70
2023-02-09T07:37:45.496Z,76.24
2023-02-09T07:40:14.037Z,75.91
2023-02-09T07:42:41.608Z,76.10
2023-02-09T07:45:10.244Z,74.91
2023-02-09T07:47:38.789Z,75.38
2023-02-09T07:50:07.186Z,75.98
2023-02-09T07:52:36.110Z,75.88
2023-02-09T07:55:04.579Z,75.32
2023-02-09T07:57:32.931Z,74.97
2023-02-09T08:00:01.189Z,73.92
2023-02-09T08:02:34.947Z,73.27
2023-02-09T08:05:04.720Z,72.78
2023-02-09T08:07:32.818Z,71.01
2023-02-09T08:10:02.572Z,70.81
2023-02-09T08:12:45.507Z,70.25
2023-02-09T08:15:16.544Z,70.73
2023-02-09T08:17:44.307Z,70.00
2023-02-09T08:20:15.640Z,69.30
2023-02-09T08:22:47.880Z,68.42
2023-02-09T08:25:20.345Z,68.92
2023-02-09T08:27:48.223Z,69.30
2023-02-09T08:30:18.277Z,68.35
2023-02-09T08:32:45.864Z,68.36
2023-02-09T08:35:14.044Z,67.33
2023-02-09T08:37:41.710Z,67.29
2023-02-09T08:40:10.153Z,66.27
2023-02-09T08:42:39.065Z,65.91
2023-02-09T08:45:07.854Z,65.25
2023-02-09T08:47:35.462Z,65.04
2023-02-09T08:50:03.446Z,66.11
2023-02-09T08:52:31.030Z,64.96
2023-02-09T08:54:59.081Z,65.40
2023-02-09T08:57:41.788Z,66.43
2023-02-09T09:00:14.504Z,64.85
2023-02-09T09:02:42.212Z,62.28
2023-02-09T09:05:11.268Z,62.86
2023-02-09T09:07:39.004Z,62.50
2023-02-09T09:10:08.797Z,61.68
2023-02-09T09:12:37.367Z,58.76
2023-02-09T09:15:06.025Z,56.07
2023-02-09T09:17:34.992Z,54.21
2023-02-09T09:20:02.791Z,53.31
2023-02-09T09:22:30.409Z,52.77
2023-02-09T09:24:58.014Z,50.77
2023-02-09T09:27:27.124Z,51.56
2023-02-09T09:29:54.909Z,52.05
2023-02-09T09:32:24.848Z,51.10
2023-02-09T09:34:55.276Z,49.21
2023-02-09T09:37:24.148Z,49.78
2023-02-09T09:39:52.095Z,50.02
2023-02-09T09:42:24.689Z,47.37
2023-02-09T09:44:53.710Z,48.05
2023-02-09T09:47:27.213Z,47.98
2023-02-09T09:49:56.356Z,46.23
2023-02-09T09:52:31.130Z,46.52
2023-02-09T09:54:59.405Z,46.09
2023-02-09T09:57:29.684Z,46.80
2023-02-09T09:59:58.523Z,45.28
2023-02-09T10:02:30.923Z,44.36
2023-02-09T10:05:03.547Z,43.56
2023-02-09T10:07:33.546Z,43.02
2023-02-09T10:10:05.823Z,42.79
2023-02-09T10:12:38.336Z,44.24
2023-02-09T10:15:28.203Z,43.63
2023-02-09T10:17:57.812Z,43.86
2023-02-09T10:20:48.602Z,44.04
2023-02-09T10:23:19.761Z,42.59
2023-02-09T10:25:55.562Z,42.11
2023-02-09T10:28:25.580Z,41.99
2023-02-09T10:30:55.852Z,40.95
2023-02-09T10:33:24.275Z,40.15
2023-02-09T10:35:54.966Z,40.66
2023-02-09T10:38:25.403Z,39.78
2023-02-09T10:40:54.400Z,39.78
2023-02-09T10:43:25.390Z,39.36
2023-02-09T10:45:56.576Z,41.20
2023-02-09T10:48:26.140Z,39.92
2023-02-09T10:50:59.068Z,40.38
2023-02-09T10:53:30.179Z,40.04
2023-02-09T10:56:04.319Z,40.42
2023-02-09T10:58:33.537Z,44.54
2023-02-09T11:01:13.697Z,43.67
2023-02-09T11:03:59.274Z,42.25
2023-02-09T11:06:29.218Z,41.97
2023-02-09T11:09:01.948Z,42.36
2023-02-09T11:11:32.180Z,42.99
2023-02-09T11:14:00.935Z,41.00
2023-02-09T11:16:48.555Z,43.96
2023-02-09T11:19:30.097Z,42.88
2023-02-09T11:22:07.535Z,42.72
2023-02-09T11:24:49.020Z,42.71
2023-02-09T11:27:29.497Z,44.82
2023-02-09T11:30:09.620Z,42.20
2023-02-09T11:32:43.786Z,42.96
2023-02-09T11:35:13.451Z,44.05
2023-02-09T11:37:50.863Z,44.55
2023-02-09T11:40:26.223Z,44.10
2023-02-09T11:43:06.338Z,42.45
2023-02-09T11:45:40.409Z,43.15
2023-02-09T11:48:12.804Z,43.52
2023-02-09T11:50:49.764Z,45.96
2023-02-09T11:53:26.183Z,46.97
2023-02-09T11:55:57.354Z,48.36
2023-02-09T11:58:35.740Z,48.26
2023-02-09T12:01:15.767Z,50.29
2023-02-09T12:03:58.931Z,53.16
2023-02-09T12:06:29.331Z,54.51
2023-02-09T12:09:10.120Z,54.52
2023-02-09T12:11:46.921Z,55.15
2023-02-09T12:14:24.945Z,53.28
2023-02-09T12:16:59.798Z,52.16
2023-02-09T12:19:35.255Z,53.33
2023-02-09T12:22:40.501Z,51.89
2023-02-09T12:25:25.376Z,50.41
2023-02-09T12:28:12.718Z,53.81
2023-02-09T12:30:59.896Z,53.93
2023-02-09T12:33:34.918Z,50.81
2023-02-09T12:36:05.803Z,50.91
2023-02-09T12:39:05.468Z,50.81
2023-02-09T12:42:06.713Z,52.51
2023-02-09T12:44:54.852Z,51.37
2023-02-09T12:47:43.612Z,50.98
2023-02-09T12:50:23.570Z,53.70
2023-02-09T12:53:31.409Z,55.49
2023-02-09T12:56:00.592Z,55.78
2023-02-09T12:58:39.983Z,57.00
2023-02-09T13:01:09.188Z,57.11
2023-02-09T13:03:43.454Z,58.00
2023-02-09T13:06:29.515Z,58.63
2023-02-09T13:09:00.901Z,60.22
2023-02-09T13:11:41.444Z,58.20
2023-02-09T13:14:13.504Z,60.15
2023-02-09T13:17:24.551Z,59.54
2023-02-09T13:20:11.417Z,59.07
2023-02-09T13:22:54.633Z,57.25
2023-02-09T13:25:30.194Z,59.34
2023-02-09T13:28:10.295Z,58.44
2023-02-09T13:30:38.560Z,58.41
2023-02-09T13:33:22.841Z,57.82
2023-02-09T13:36:08.927Z,59.48
2023-02-09T13:38:41.536Z,60.07
2023-02-09T13:41:24.321Z,61.61
2023-02-09T13:43:51.957Z,61.89
2023-02-09T13:46:26.927Z,61.72
2023-02-09T13:49:10.159Z,58.72
2023-02-09T13:51:38.459Z,59.39
2023-02-09T13:54:06.172Z,60.82
2023-02-09T13:56:35.783Z,60.17
2023-02-09T13:59:03.632Z,59.46
2023-02-09T14:01:34.499Z,60.04
2023-02-09T14:04:08.477Z,60.87
2023-02-09T14:06:40.808Z,59.28
2023-02-09T14:09:13.798Z,60.31
2023-02-09T14:11:46.412Z,58.84
2023-02-09T14:14:20.605Z,61.08
2023-02-09T14:16:53.913Z,59.47
2023-02-09T14:19:31.572Z,58.94
2023-02-09T14:21:59.661Z,57.07
2023-02-09T14:24:28.059Z,56.98
2023-02-09T14:27:03.956Z,55.84
2023-02-09T14:29:33.796Z,56.55
2023-02-09T14:32:05.174Z,55.48
2023-02-09T14:34:36.772Z,56.49
2023-02-09T14:37:26.321Z,57.83
2023-02-09T14:40:00.774Z,57.44
2023-02-09T14:42:28.992Z,57.60
2023-02-09T14:44:58.898Z,61.04
2023-02-09T14:47:40.228Z,61.06
2023-02-09T14:50:11.193Z,61.55
2023-02-09T14:52:39.874Z,59.46
2023-02-09T14:55:17.182Z,59.04
2023-02-09T14:57:44.821Z,59.72
2023-02-09T15:00:19.226Z,60.14
2023-02-09T15:02:47.257Z,58.01
2023-02-09T15:05:14.963Z,57.62
2023-02-09T15:07:45.632Z,59.14
2023-02-09T15:10:25.895Z,60.35
2023-02-09T15:12:54.679Z,61.28
2023-02-09T15:15:24.515Z,61.99
2023-02-09T15:17:54.171Z,61.22
2023-02-09T15:20:24.782Z,62.02
2023-02-09T15:22:52.475Z,62.71
2023-02-09T15:25:22.648Z,62.47
2023-02-09T15:27:53.952Z,61.92
2023-02-09T15:30:23.580Z,62.62
2023-02-09T15:32:52.343Z,62.80
2023-02-09T15:35:22.957Z,62.59
2023-02-09T15:37:54.321Z,64.19
2023-02-09T15:40:45.497Z,65.42
2023-02-09T15:43:33.584Z,65.43
2023-02-09T15:46:19.069Z,64.63
2023-02-09T15:48:46.692Z,65.02
2023-02-09T15:51:15.575Z,64.02
2023-02-09T15:53:43.832Z,63.97
2023-02-09T15:56:14.753Z,64.21
2023-02-09T15:58:44.795Z,63.92
2023-02-09T16:01:15.244Z,63.70
2023-02-09T16:03:42.932Z,62.77
2023-02-09T16:06:16.445Z,62.45
2023-02-09T16:08:45.281Z,62.35
2023-02-09T16:11:19.770Z,63.90
2023-02-09T16:13:47.426Z,63.63
2023-02-09T16:16:17.881Z,63.69
2023-02-09T16:18:46.387Z,64.47
2023-02-09T16:21:21.181Z,65.04
2023-02-09T16:23:48.974Z,66.55
2023-02-09T16:26:19.270Z,66.63
2023-02-09T16:28:47.219Z,66.10
2023-02-09T16:31:15.146Z,66.64
2023-02-09T16:33:43.599Z,66.75
2023-02-09T16:36:14.779Z,68.08
2023-02-09T16:38:43.309Z,68.43
2023-02-09T16:41:34.617Z,68.10
2023-02-09T16:44:15.140Z,69.19
2023-02-09T16:46:42.946Z,69.56
2023-02-09T16:49:30.812Z,69.69
2023-02-09T16:52:01.870Z,70.54
2023-02-09T16:54:33.347Z,70.00
2023-02-09T16:57:01.286Z,69.76
2023-02-09T16:59:30.258Z,69.54
2023-02-09T17:01:59.872Z,69.62
2023-02-09T17:04:27.599Z,69.56
2023-02-09T17:06:55.825Z,69.53
2023-02-09T17:09:23.413Z,70.03
2023-02-09T17:11:51.182Z,70.18
2023-02-09T17:14:19.112Z,69.44
2023-02-09T17:16:49.656Z,70.05
2023-02-09T17:19:19.461Z,70.12
2023-02-09T17:21:47.119Z,70.70
2023-02-09T17:24:17.201Z,71.14
2023-02-09T17:26:45.604Z,70.63
2023-02-09T17:29:14.551Z,71.17
2023-02-09T17:31:52.730Z,71.95
2023-02-09T17:34:27.388Z,71.86
2023-02-09T17:36:55.082Z,71.08
2023-02-09T17:39:23.386Z,71.55
2023-02-09T17:41:51.168Z,71.20
2023-02-09T17:44:35.255Z,72.34
2023-02-09T17:47:14.080Z,72.32
2023-02-09T17:49:43.144Z,72.01
2023-02-09T17:52:16.815Z,72.61
2023-02-09T17:54:45.398Z,72.87
2023-02-09T17:57:14.128Z,74.08
2023-02-09T17:59:42.067Z,74.22
2023-02-09T18:02:16.321Z,74.62
2023-02-09T18:04:45.686Z,74.15
2023-02-09T18:07:14.448Z,75.05
2023-02-09T18:09:42.568Z,75.57
2023-02-09T18:12:19.380Z,76.02
2023-02-09T18:14:47.386Z,76.68
2023-02-09T18:17:14.982Z,77.98
2023-02-09T18:19:42.884Z,79.03
2023-02-09T18:22:16.878Z,78.45
2023-02-09T18:24:45.699Z,78.86
2023-02-09T18:27:17.272Z,79.47
2023-02-09T18:29:45.479Z,79.06
2023-02-09T18:32:16.052Z,81.91
2023-02-09T18:34:44.079Z,81.48
2023-02-09T18:37:14.739Z,80.84
2023-02-09T18:39:46.690Z,80.31
2023-02-09T18:42:15.927Z,79.96
2023-02-09T18:44:43.978Z,79.37
2023-02-09T18:47:12.406Z,79.17
2023-02-09T18:49:40.337Z,78.72
2023-02-09T18:52:08.483Z,78.91
2023-02-09T18:54:38.204Z,79.00
2023-02-09T18:57:05.839Z,78.53
2023-02-09T18:59:33.624Z,78.08
2023-02-09T19:02:01.301Z,78.16
2023-02-09T19:04:29.348Z,77.73
2023-02-09T19:06:56.937Z,77.58
2023-02-09T19:09:25.179Z,78.11
2023-02-09T19:11:54.105Z,78.20
2023-02-09T19:14:40.223Z,78.80
2023-02-09T19:17:10.232Z,79.03
2023-02-09T19:19:38.877Z,79.45
2023-02-09T19:22:06.774Z,79.61
2023-02-09T19:24:34.390Z,79.99
2023-02-09T19:27:03.459Z,80.35
2023-02-09T19:29:31.324Z,80.54
2023-02-09T19:31:58.888Z,81.43
2023-02-09T19:34:31.301Z,80.98
2023-02-09T19:36:59.046Z,80.80
2023-02-09T19:39:27.057Z,81.15
2023-02-09T19:41:54.721Z,81.32
2023-02-09T19:44:24.004Z,80.76
2023-02-09T19:46:51.669Z,80.87
2023-02-09T19:49:19.432Z,81.00
2023-02-09T19:51:47.148Z,81.10
2023-02-09T19:54:14.740Z,80.90
2023-02-09T19:56:45.115Z,80.47
2023-02-09T19:59:13.743Z,80.42
2023-02-09T20:01:43.437Z,80.15
2023-02-09T20:04:11.208Z,80.08
2023-02-09T20:06:39.222Z,80.11
2023-02-09T20:09:06.817Z,79.58
2023-02-09T20:11:35.203Z,80.01
2023-02-09T20:14:03.103Z,79.79
2023-02-09T20:16:30.990Z,80.11
2023-02-09T20:19:00.036Z,80.49
2023-02-09T20:21:27.921Z,80.34
2023-02-09T20:23:56.267Z,80.43
2023-02-09T20:26:28.957Z,80.44
2023-02-09T20:28:57.772Z,80.84
2023-02-09T20:31:27.989Z,81.04
2023-02-09T20:33:56.171Z,81.67
2023-02-09T20:36:25.916Z,81.37
2023-02-09T20:38:53.961Z,81.72
2023-02-09T20:41:21.910Z,81.61
2023-02-09T20:44:07.014Z,81.63
2023-02-09T20:46:55.684Z,81.61
2023-02-09T20:49:25.735Z,81.37
2023-02-09T20:51:55.153Z,81.25
2023-02-09T20:54:22.736Z,81.55
2023-02-09T20:56:50.456Z,81.69
2023-02-09T20:59:18.237Z,82.03
2023-02-09T21:01:46.258Z,82.38
2023-02-09T21:04:13.917Z,82.24
2023-02-09T21:06:41.503Z,81.82
2023-02-09T21:09:14.073Z,81.73
2023-02-09T21:11:42.320Z,82.00
2023-02-09T21:14:21.721Z,82.31
2023-02-09T21:16:57.874Z,82.49
2023-02-09T21:19:25.949Z,82.56
2023-02-09T21:21:53.728Z,83.19
2023-02-09T21:24:22.953Z,82.75
2023-02-09T21:26:50.527Z,82.83
2023-02-09T21:29:18.136Z,82.28
2023-02-09T21:31:46.246Z,82.84
2023-02-09T21:34:15.100Z,82.39
2023-02-09T21:36:43.686Z,82.14
2023-02-09T21:39:11.403Z,82.58
2023-02-09T21:41:58.484Z,82.29
2023-02-09T21:44:26.281Z,82.02
2023-02-09T21:46:55.206Z,81.72
2023-02-09T21:49:23.164Z,81.01
2023-02-09T21:51:51.167Z,80.64
2023-02-09T21:54:19.453Z,80.51
2023-02-09T21:56:48.443Z,80.20
2023-02-09T21:59:16.060Z,79.51
2023-02-09T22:01:43.727Z,79.84
2023-02-09T22:04:11.372Z,79.24
2023-02-09T22:06:39.601Z,79.06
2023-02-09T22:09:07.188Z,78.80
2023-02-09T22:11:35.540Z,79.01
2023-02-09T22:14:04.536Z,78.83
2023-02-09T22:16:32.605Z,77.59
2023-02-09T22:19:00.673Z,77.35
2023-02-09T22:21:28.704Z,76.95
2023-02-09T22:23:56.360Z,77.81
2023-02-09T22:26:24.470Z,78.07
2023-02-09T22:28:52.117Z,79.04
2023-02-09T22:31:22.057Z,79.02
2023-02-09T22:33:54.155Z,78.70
2023-02-09T22:36:23.305Z,79.45
2023-02-09T22:38:51.343Z,80.00
2023-02-09T22:41:24.452Z,79.50
2023-02-09T22:43:54.106Z,79.27
2023-02-09T22:46:25.480Z,80.11
2023-02-09T22:48:54.253Z,81.88
2023-02-09T22:51:23.881Z,81.66
2023-02-09T22:53:51.868Z,81.83
2023-02-09T22:56:19.508Z,81.94
2023-02-09T22:58:47.476Z,81.01
2023-02-09T23:01:15.461Z,81.86
2023-02-09T23:03:44.869Z,81.67
2023-02-09T23:06:15.169Z,81.37
2023-02-09T23:08:43.115Z,81.07
2023-02-09T23:11:13.413Z,81.18
2023-02-09T23:13:42.218Z,81.15
2023-02-09T23:16:11.852Z,81.18
2023-02-09T23:18:40.554Z,81.63
2023-02-09T23:21:09.491Z,81.18
2023-02-09T23:23:37.486Z,81.92
2023-02-09T23:26:05.413Z,82.54
2023-02-09T23:28:33.190Z,82.77
2023-02-09T23:31:05.443Z,82.41
2023-02-09T23:33:33.758Z,82.30
2023-02-09T23:36:04.524Z,81.70
2023-02-09T23:38:33.877Z,81.35
2023-02-09T23:41:06.359Z,80.99
2023-02-09T23:43:34.542Z,80.71
2023-02-09T23:46:02.338Z,80.66
2023-02-09T23:48:30.466Z,81.07
2023-02-09T23:51:02.026Z,81.53
2023-02-09T23:53:30.593Z,81.11
2023-02-09T23:56:03.726Z,81.17
2023-02-09T23:58:32.268Z,81.16
